Nearby METAR Reports

 

KISP - Islip, New York, USA
Distance from station: SW 4mi, 6km
Updated: Mon, 07/4/2022 4:56 pm EDT
Partly cloudy
Partly cloudy
 Wind from SSW
Wind: SSW 12 mph , 19 km/h
Temperature: 79°F , 26°C
Dew Point: 52°F , 11°C
Humidity: 39%
Barometer: 30.11 inHg , 1019.6 hPa
Clouds: Partly cloudy
Visibility: 10 miles , 16 km
Cloud details: Few Clouds 7500 ft
Partly cloudy 25000 ft
2022/07/04 20:56 KISP 042056Z 21010KT 10SM FEW075 SCT250 26/11 A3011 RMK AO2 SLP196 T02610106 56007
KHWV - Shirley, New York, USA
Distance from station: E 10mi, 16km
Updated: Mon, 07/4/2022 4:56 pm EDT
Clear
Clear
 Wind from S
Wind: S 14 mph , 22 km/h
Temperature: 79°F , 26°C
Dew Point: 52°F , 11°C
Humidity: 39%
Barometer: 30.12 inHg , 1020 hPa
Clouds: Clear
Visibility: 10 miles , 16 km
2022/07/04 20:56 KHWV 042056Z AUTO 19012KT 10SM CLR 26/11 A3012 RMK AO2 SLP198 T02610106 56006
 
KFRG - Farmingdale, New York, USA
Distance from station: WSW 20mi, 33km
Updated: Mon, 07/4/2022 4:53 pm EDT
Clear
Clear
 Wind from S
Wind: S 13 mph , 20 km/h
Temperature: 79°F , 26°C
Dew Point: 52°F , 11°C
Humidity: 39%
Barometer: 30.12 inHg , 1020 hPa
Clouds: Clear
Visibility: 10 miles , 16 km
2022/07/04 20:53 KFRG 042053Z 19011KT 10SM CLR 26/11 A3012 RMK AO2 SLP198 T02610111 56007
KBDR - Bridgeport, Connecticut, USA
Distance from station: N 23mi, 37km
Updated: Mon, 07/4/2022 4:52 pm EDT
Clear
Clear
 Wind from SSW
Wind: SSW 14 mph , 22 km/h
Temperature: 82°F , 28°C
Dew Point: 52°F , 11°C
Humidity: 35%
Barometer: 30.09 inHg , 1019 hPa
Clouds: Clear
Visibility: 10 miles , 16 km
2022/07/04 20:52 KBDR 042052Z 21012KT 10SM CLR 28/11 A3009 RMK AO2 SLP190 T02780106 56014
 
KFOK - Westhampton Beac, New York, USA
Distance from station: E 23mi, 37km
Updated: Mon, 07/4/2022 4:53 pm EDT
Clear
Clear
 Wind from SSW
Wind: SSW 8 mph , 13 km/h, Gust: 17 mph , 28 km/h
Temperature: 77°F , 25°C
Dew Point: 50°F , 10°C
Humidity: 39%
Barometer: 30.13 inHg , 1020.3 hPa
Clouds: Clear
Visibility: 10 miles , 16 km
2022/07/04 20:53 KFOK 042053Z 21007G15KT 10SM CLR 25/10 A3013 RMK AO2 SLP202 T02500100 56007
KHVN - New Haven/Tweed, Connecticut, USA
Distance from station: NNE 31mi, 50km
Updated: Mon, 07/4/2022 4:53 pm EDT
Clear
Clear
 Wind from SSW
Wind: SSW 10 mph , 17 km/h
Temperature: 82°F , 28°C
Heat Index: 81°F , 27°C
Dew Point: 55°F , 13°C
Humidity: 40%
Barometer: 30.10 inHg , 1019.3 hPa
Clouds: Clear
Visibility: 10 miles , 16 km
2022/07/04 20:53 KHVN 042053Z 20009KT 10SM CLR 28/13 A3010 RMK AO2 SLP191 T02780128 56013
 
KHPN - White Plains, New York, USA
Distance from station: WNW 37mi, 60km
Updated: Mon, 07/4/2022 4:56 pm EDT
Few Clouds
Few Clouds
 Wind from varies
Wind: varies 5 mph , 7 km/h
Temperature: 82°F , 28°C
Dew Point: 52°F , 11°C
Humidity: 35%
Barometer: 30.11 inHg , 1019.6 hPa
Clouds: Few Clouds
Visibility: 10 miles , 16 km
Cloud details: Few Clouds 3500 ft
2022/07/04 20:56 KHPN 042056Z VRB04KT 10SM FEW035 28/11 A3011 RMK AO2 SLP190 T02830106 56012
KJFK - Nyc/Jfk Arpt, New York, USA
Distance from station: WSW 40mi, 64km
Updated: Mon, 07/4/2022 4:51 pm EDT
Mostly cloudy
Mostly cloudy
 Wind from S
Wind: S 13 mph , 20 km/h
Temperature: 79°F , 26°C
Dew Point: 52°F , 11°C
Humidity: 39%
Barometer: 30.13 inHg , 1020.3 hPa
Clouds: Mostly cloudy
Visibility: 10 miles , 16 km
Cloud details: Few Clouds 7500 ft
Mostly cloudy 25000 ft
2022/07/04 20:51 KJFK 042051Z 18011KT 10SM FEW075 BKN250 26/11 A3013 RMK AO2 SLP201 T02610111 55005
 
KDXR - Danbury, Connecticut, USA
Distance from station: NNW 42mi, 68km
Updated: Mon, 07/4/2022 4:53 pm EDT
Few Clouds
Few Clouds
 Wind from WSW
Wind: WSW 17 mph , 28 km/h, Gust: 26 mph , 43 km/h
Temperature: 84°F , 29°C
Dew Point: 50°F , 10°C
Humidity: 31%
Barometer: 30.11 inHg , 1019.6 hPa
Clouds: Few Clouds
Visibility: 10 miles , 16 km
Cloud details: Few Clouds 7500 ft
2022/07/04 20:53 KDXR 042053Z 25015G23KT 220V300 10SM FEW075 29/10 A3011 RMK AO2 SLP194 T02890100 56014
KHTO - East Hampton, New York, USA
Distance from station: E 43mi, 69km
Updated: Sat, 05/21/2022 1:35 pm EDT
NOT Current
Clear
Clear
 Wind from WNW
Wind: WNW 5 mph , 7 km/h
Temperature: 81°F , 27°C
Heat Index: 83°F , 28°C
Dew Point: 66°F , 19°C
Humidity: 62%
Barometer: 30.00 inHg , 1015.9 hPa
Clouds: Clear
Visibility: 10 miles , 16 km
2022/05/21 17:35 KHTO 211735Z AUTO 30004KT 10SM CLR 27/19 A3000 RMK AO2 T02670193
 
KOXC - Oxford/Waterbury, Connecticut, USA
Distance from station: N 43mi, 70km
Updated: Mon, 07/4/2022 4:51 pm EDT
Clear
Clear
 Wind from NW
Wind: NW 10 mph , 17 km/h
Temperature: 81°F , 27°C
Dew Point: 52°F , 11°C
Humidity: 37%
Barometer: 30.13 inHg , 1020.3 hPa
Clouds: Clear
Visibility: 10 miles , 16 km
2022/07/04 20:51 KOXC 042051Z 32009KT 10SM CLR 27/11 A3013 RMK AO2 SLP209 T02670111 56012
KLGA - Nyc/La Guardia, New York, USA
Distance from station: W 44mi, 70km
Updated: Mon, 07/4/2022 4:51 pm EDT
Mostly cloudy
Mostly cloudy
 Wind from varies
Wind: varies 5 mph , 7 km/h
Temperature: 86°F , 30°C
Dew Point: 45°F , 7°C
Humidity: 24%
Barometer: 30.10 inHg , 1019.3 hPa
Clouds: Mostly cloudy
Visibility: 10 miles , 16 km
Cloud details: Partly cloudy 8500 ft
Mostly cloudy 25000 ft
2022/07/04 20:51 KLGA 042051Z VRB04KT 10SM SCT085 BKN250 30/07 A3010 RMK AO2 SLP193 T03000072 55005
 
KSNC - Chester, Connecticut, USA
Distance from station: NE 47mi, 76km
Updated: Mon, 07/4/2022 5:35 pm EDT
Clear
Clear
 Wind from SSW
Wind: SSW 8 mph , 13 km/h
Temperature: 81°F , 27°C
Dew Point: 48°F , 9°C
Humidity: 32%
Barometer: 30.11 inHg , 1019.6 hPa
Clouds: Clear
Visibility: 10 miles , 16 km
2022/07/04 21:35 KSNC 042135Z AUTO 20007KT 10SM CLR 27/09 A3011 RMK AO2
KMMK - Meriden, Connecticut, USA
Distance from station: NNE 48mi, 77km
Updated: Mon, 07/4/2022 4:53 pm EDT
Few Clouds
Few Clouds
 Wind from varies
Wind: varies 6 mph , 9 km/h
Temperature: 82°F , 28°C
Dew Point: 48°F , 9°C
Humidity: 30%
Barometer: 30.09 inHg , 1019 hPa
Clouds: Few Clouds
Visibility: 10 miles , 16 km
Cloud details: Few Clouds 8000 ft
2022/07/04 20:53 KMMK 042053Z AUTO VRB05KT 10SM FEW080 28/09 A3009 RMK AO2 SLP188 T02830089 56009
 
KNYC - Nyc/Central Park, New York, USA
Distance from station: W 48mi, 77km
Updated: Mon, 07/4/2022 4:51 pm EDT
Clear
Clear
 Wind from varies
Wind: varies 6 mph , 9 km/h
Temperature: 84°F , 29°C
Dew Point: 46°F , 8°C
Humidity: 27%
Barometer: 30.13 inHg , 1020.3 hPa
Clouds: Clear
Visibility: 10 miles , 16 km
2022/07/04 20:51 KNYC 042051Z AUTO VRB05KT 10SM CLR 29/08 A3013 RMK AO2 SLP194 T02940083 55005 $